Time;durP1;ratioP1;P1;durP2;ratioP2;P2;SDS_P1;SDS_P2;PMS_P1;PMS_P2;Temp;Humidity;BMP_temperature;BMP_pressure;BME280_temperature;BME280_humidity;BME280_pressure;Samples;Min_cycle;Max_cycle;Signal;HPM_P1;HPM_P2
2021/01/01 00:34:56;;;;;;;13.70;8.82;;;1.90;99.90;;;;;;5490397;24;388275;31
2021/01/01 00:37:22;;;;;;;13.95;9.55;;;1.90;99.90;;;;;;5502252;24;21056;31
2021/01/01 00:42:13;;;;;;;18.70;10.98;;;2.00;99.90;;;;;;5488838;24;394199;31
2021/01/01 00:55:51;;;;;;;13.23;9.15;;;2.20;99.90;;;;;;6231198;22;20785;31
2021/01/01 01:45:13;;;;;;;21.38;13.35;;;2.00;99.90;;;;;;6287562;22;20196;31
2021/01/01 01:59:35;;;;;;;19.85;12.07;;;1.60;99.90;;;;;;6165831;23;20203;31
2021/01/01 02:27:04;;;;;;;16.27;10.52;;;1.10;99.90;;;;;;6298926;22;20203;31
2021/01/01 02:29:29;;;;;;;16.35;10.32;;;1.10;99.90;;;;;;6296584;22;20193;31
2021/01/01 02:34:05;;;;;;;17.77;11.27;;;1.10;99.90;;;;;;6324326;22;20513;31
2021/01/01 02:46:21;;;;;;;16.27;10.43;;;1.00;99.90;;;;;;6183893;22;390406;31
2021/01/01 02:51:12;;;;;;;20.60;11.27;;;1.00;99.90;;;;;;6193012;22;20192;31
2021/01/01 02:56:03;;;;;;;19.25;11.18;;;1.00;99.90;;;;;;6167951;22;20192;31
2021/01/01 03:00:54;;;;;;;18.67;11.77;;;1.00;99.90;;;;;;6147607;22;389476;31
2021/01/01 03:23:21;;;;;;;17.98;10.65;;;1.00;99.90;;;;;;6266941;22;20209;31
2021/01/01 05:24:43;;;;;;;17.52;10.85;;;1.60;99.90;;;;;;6278430;22;20187;-62
2021/01/01 05:27:16;;;;;;;18.65;11.20;;;1.60;99.90;;;;;;6279429;22;20131;-63
2021/01/01 05:29:55;;;;;;;19.52;11.15;;;1.60;99.90;;;;;;6279203;22;20590;-62
2021/01/01 05:32:22;;;;;;;17.60;11.02;;;1.60;99.90;;;;;;6279613;22;20166;-62
2021/01/01 05:34:48;;;;;;;16.58;11.18;;;1.50;99.90;;;;;;6279353;22;20453;-62
2021/01/01 05:37:32;;;;;;;16.85;10.57;;;1.50;99.90;;;;;;6278713;22;20140;-62
2021/01/01 05:40:09;;;;;;;17.17;11.00;;;1.50;99.90;;;;;;6279552;22;20404;-62
2021/01/01 05:42:37;;;;;;;16.65;10.90;;;1.60;99.90;;;;;;6252538;22;20241;-62
2021/01/01 05:45:19;;;;;;;16.88;10.80;;;1.60;99.90;;;;;;6279033;22;20444;-62
2021/01/01 05:48:06;;;;;;;16.85;10.55;;;1.60;99.90;;;;;;6279521;22;20148;-62
2021/01/01 05:50:32;;;;;;;19.10;11.80;;;1.60;99.90;;;;;;6278757;22;20246;-62
2021/01/01 05:53:20;;;;;;;18.33;11.13;;;1.60;99.90;;;;;;6278559;22;20158;-62
2021/01/01 05:55:46;;;;;;;19.35;11.52;;;1.60;99.90;;;;;;6279151;22;20163;-62
2021/01/01 05:58:26;;;;;;;17.20;11.02;;;1.60;99.90;;;;;;6279401;22;20462;-62
2021/01/01 06:00:56;;;;;;;19.85;11.65;;;1.60;99.90;;;;;;6279044;22;20131;-62
2021/01/01 06:03:27;;;;;;;17.42;10.88;;;1.60;99.90;;;;;;6278968;22;20143;-62
2021/01/01 06:06:06;;;;;;;18.85;11.40;;;1.60;99.90;;;;;;6279089;22;20175;-62
2021/01/01 06:08:32;;;;;;;18.92;11.02;;;1.70;99.90;;;;;;6279236;22;20138;-62
2021/01/01 06:11:05;;;;;;;18.15;11.75;;;1.70;99.90;;;;;;6278930;22;20140;-62
2021/01/01 06:13:32;;;;;;;17.90;11.23;;;1.70;99.90;;;;;;6278777;22;20170;-62
2021/01/01 06:16:03;;;;;;;18.08;11.40;;;1.70;99.90;;;;;;6279157;22;20214;-62
2021/01/01 06:18:33;;;;;;;17.50;10.88;;;1.70;99.90;;;;;;6279185;22;20193;-63
2021/01/01 06:21:04;;;;;;;16.83;11.48;;;1.70;99.90;;;;;;6278708;22;20575;-63
2021/01/01 06:23:36;;;;;;;15.27;11.13;;;1.70;99.90;;;;;;6278891;22;20178;-62
2021/01/01 06:26:10;;;;;;;17.33;11.90;;;1.70;99.90;;;;;;6279003;22;20223;-63
2021/01/01 06:28:37;;;;;;;17.17;11.05;;;1.80;99.90;;;;;;6278729;22;20217;-62
2021/01/01 06:31:03;;;;;;;18.15;11.70;;;1.70;99.90;;;;;;6278766;22;20234;-62
2021/01/01 06:33:28;;;;;;;17.02;11.00;;;1.80;99.90;;;;;;6252346;22;20581;-62
2021/01/01 06:35:54;;;;;;;19.20;11.70;;;1.80;99.90;;;;;;6278529;22;20142;-62
2021/01/01 06:38:41;;;;;;;19.00;11.82;;;1.80;99.90;;;;;;6278649;22;20146;-62
2021/01/01 06:41:14;;;;;;;17.48;10.70;;;1.80;99.90;;;;;;6278678;22;20198;-62
2021/01/01 06:43:54;;;;;;;18.05;11.50;;;1.70;99.90;;;;;;6279013;22;20151;-63
2021/01/01 06:46:35;;;;;;;18.65;11.32;;;1.70;99.90;;;;;;6278495;22;20617;-62
2021/01/01 06:49:03;;;;;;;18.77;11.20;;;1.70;99.90;;;;;;6278416;22;20148;-62
2021/01/01 06:51:29;;;;;;;17.20;10.93;;;1.70;99.90;;;;;;6278572;22;20143;-62
2021/01/01 06:54:09;;;;;;;18.02;11.48;;;1.70;99.90;;;;;;6278769;22;20250;-62
2021/01/01 06:56:35;;;;;;;19.38;11.20;;;1.70;99.90;;;;;;6278682;22;20547;-62
2021/01/01 06:59:07;;;;;;;17.35;11.05;;;1.70;99.90;;;;;;6278503;22;20140;-62
2021/01/01 07:01:42;;;;;;;19.60;11.80;;;1.70;99.90;;;;;;6278743;22;20171;-62
2021/01/01 07:04:08;;;;;;;16.15;10.65;;;1.70;99.90;;;;;;6279504;22;20127;-62
2021/01/01 07:06:35;;;;;;;18.00;11.27;;;1.70;99.90;;;;;;6279817;22;20143;-63
2021/01/01 07:09:03;;;;;;;19.83;11.65;;;1.70;99.90;;;;;;6278436;22;20139;-58
2021/01/01 07:11:29;;;;;;;17.60;11.27;;;1.70;99.90;;;;;;6279550;22;20227;-58
2021/01/01 07:13:55;;;;;;;16.80;11.30;;;1.70;99.90;;;;;;6278628;22;20190;-58
2021/01/01 07:16:23;;;;;;;18.20;11.20;;;1.80;99.90;;;;;;6278962;22;20520;-58
2021/01/01 07:18:50;;;;;;;20.98;11.57;;;1.80;99.90;;;;;;6278354;22;20136;-58
2021/01/01 07:21:16;;;;;;;17.30;11.85;;;1.80;99.90;;;;;;6278728;22;20449;-57
2021/01/01 07:23:43;;;;;;;17.25;11.13;;;1.70;99.90;;;;;;6278313;22;20186;-58
2021/01/01 07:26:09;;;;;;;17.67;11.43;;;1.70;99.90;;;;;;6278409;22;20139;-58
2021/01/01 07:28:37;;;;;;;17.65;11.27;;;1.70;99.90;;;;;;6278342;22;20155;-58
2021/01/01 07:31:03;;;;;;;18.10;11.77;;;1.70;99.90;;;;;;6278497;22;20235;-58
2021/01/01 07:33:30;;;;;;;18.15;11.20;;;1.70;99.90;;;;;;6278219;22;20556;-57
2021/01/01 07:36:00;;;;;;;17.52;11.10;;;1.70;99.90;;;;;;6278174;22;20441;-58
2021/01/01 07:38:28;;;;;;;18.38;11.55;;;1.70;99.90;;;;;;6252369;22;20128;-58
2021/01/01 07:40:54;;;;;;;19.27;11.95;;;1.80;99.90;;;;;;6278113;22;20147;-57
2021/01/01 07:43:21;;;;;;;20.50;12.30;;;1.80;99.90;;;;;;6278180;22;20154;-58
2021/01/01 07:45:46;;;;;;;19.27;11.75;;;1.80;99.90;;;;;;6278119;22;20214;-58
2021/01/01 07:48:12;;;;;;;20.80;12.40;;;1.80;99.90;;;;;;6278563;22;20182;-58
2021/01/01 07:50:38;;;;;;;21.70;12.65;;;1.80;99.90;;;;;;6278684;22;20136;-57
2021/01/01 07:53:08;;;;;;;19.77;11.70;;;1.80;99.90;;;;;;6278192;22;20623;-58
2021/01/01 07:55:34;;;;;;;17.48;11.80;;;1.80;99.90;;;;;;6278637;22;20201;-58
2021/01/01 07:58:14;;;;;;;20.05;12.35;;;1.80;99.90;;;;;;6278205;22;20139;-58
2021/01/01 08:00:41;;;;;;;21.65;13.18;;;1.80;99.90;;;;;;6278651;22;20140;-58
2021/01/01 08:03:08;;;;;;;20.38;12.32;;;1.90;99.90;;;;;;6280445;22;20154;-58
2021/01/01 08:05:34;;;;;;;17.17;11.80;;;1.90;99.90;;;;;;6280016;22;20226;-58
2021/01/01 08:08:24;;;;;;;19.58;11.90;;;1.90;99.90;;;;;;6280005;22;20140;-58
2021/01/01 08:10:52;;;;;;;22.15;12.57;;;1.90;99.90;;;;;;6280524;22;20124;-58
2021/01/01 08:13:19;;;;;;;22.83;12.38;;;1.90;99.90;;;;;;6280227;22;20158;-57
2021/01/01 08:15:46;;;;;;;19.20;12.30;;;1.90;99.90;;;;;;6280202;22;20155;-58
2021/01/01 08:18:15;;;;;;;18.98;12.52;;;1.90;99.90;;;;;;6280262;22;20178;-58
2021/01/01 08:20:46;;;;;;;21.02;12.63;;;1.90;99.90;;;;;;6279955;22;20570;-58
2021/01/01 08:23:14;;;;;;;21.15;12.68;;;2.00;99.90;;;;;;6280248;22;20132;-58
2021/01/01 08:25:39;;;;;;;19.33;12.02;;;2.00;99.90;;;;;;6253265;22;20147;-58
2021/01/01 08:28:06;;;;;;;19.00;12.15;;;2.00;99.90;;;;;;6279820;22;20181;-58
2021/01/01 08:30:39;;;;;;;19.05;12.10;;;2.00;99.90;;;;;;6279769;22;20568;-58
2021/01/01 08:33:08;;;;;;;16.90;11.30;;;2.00;99.90;;;;;;6280105;22;20209;-58
2021/01/01 08:35:34;;;;;;;18.33;12.45;;;2.00;99.90;;;;;;6279766;22;20199;-58
2021/01/01 08:38:00;;;;;;;20.02;12.02;;;2.00;99.90;;;;;;6253139;22;20561;-58
2021/01/01 08:40:25;;;;;;;17.33;11.55;;;2.10;99.90;;;;;;6279771;22;20226;-58
2021/01/01 08:42:54;;;;;;;17.70;11.50;;;2.10;99.90;;;;;;6279791;22;20170;-58
2021/01/01 08:45:29;;;;;;;18.25;11.75;;;2.10;99.90;;;;;;6279620;22;20451;-57
2021/01/01 08:47:54;;;;;;;22.17;12.48;;;2.10;99.90;;;;;;6279982;22;20206;-58
2021/01/01 08:50:25;;;;;;;17.70;12.40;;;2.10;99.90;;;;;;6280336;22;20511;-57
2021/01/01 08:53:00;;;;;;;19.27;12.52;;;2.10;99.90;;;;;;6279740;22;20154;-58
2021/01/01 08:55:26;;;;;;;20.52;12.27;;;2.10;99.90;;;;;;6279752;22;20158;-58
2021/01/01 08:58:15;;;;;;;22.42;13.23;;;2.10;99.90;;;;;;6279553;22;20155;-58
2021/01/01 09:00:43;;;;;;;20.45;11.75;;;2.20;99.90;;;;;;6279541;22;20463;-58
2021/01/01 09:03:09;;;;;;;18.98;11.75;;;2.20;99.90;;;;;;6279806;22;20215;-58
2021/01/01 09:05:35;;;;;;;19.17;12.13;;;2.20;99.90;;;;;;6280217;22;20229;-58
2021/01/01 09:08:13;;;;;;;19.48;12.65;;;2.20;99.90;;;;;;6279447;22;20151;-58
2021/01/01 09:10:44;;;;;;;17.30;11.90;;;2.30;99.90;;;;;;6279685;22;20166;-58
2021/01/01 09:13:12;;;;;;;18.52;12.32;;;2.30;99.90;;;;;;6279554;22;20590;-58
2021/01/01 09:15:37;;;;;;;18.58;11.57;;;2.30;99.90;;;;;;6279593;22;20250;-58
2021/01/01 09:18:07;;;;;;;19.50;12.30;;;2.40;99.90;;;;;;6279537;22;20156;-58
2021/01/01 09:20:38;;;;;;;21.58;12.68;;;2.40;99.90;;;;;;6279591;22;20139;-58
2021/01/01 09:23:04;;;;;;;18.30;12.10;;;2.50;99.90;;;;;;6279823;22;20138;-58
2021/01/01 09:25:30;;;;;;;18.70;12.40;;;2.50;99.90;;;;;;6279482;22;20155;-58
2021/01/01 09:27:56;;;;;;;19.35;12.05;;;2.50;99.90;;;;;;6279745;22;20155;-58
2021/01/01 09:30:30;;;;;;;19.42;12.02;;;2.50;99.90;;;;;;6279805;22;20525;-58
2021/01/01 09:32:58;;;;;;;18.33;12.23;;;2.50;99.90;;;;;;6279496;22;20197;-58
2021/01/01 09:35:24;;;;;;;18.30;11.52;;;2.60;99.90;;;;;;6279311;22;20602;-58
2021/01/01 09:38:01;;;;;;;19.73;12.32;;;2.60;99.90;;;;;;6279638;22;20182;-57
2021/01/01 09:40:28;;;;;;;18.35;12.65;;;2.60;99.90;;;;;;6279458;22;20128;-57
2021/01/01 09:42:54;;;;;;;20.63;12.23;;;2.70;99.90;;;;;;6279228;22;20223;-58
2021/01/01 09:47:45;;;;;;;19.40;12.32;;;2.70;99.90;;;;;;6278587;22;20187;-58
2021/01/01 09:50:12;;;;;;;20.50;13.05;;;2.70;99.90;;;;;;6279311;22;20146;-58
2021/01/01 09:52:37;;;;;;;21.63;13.60;;;2.80;99.90;;;;;;6279163;22;20174;-58
2021/01/01 09:55:04;;;;;;;23.23;13.55;;;2.80;99.90;;;;;;6279134;22;20163;-58
2021/01/01 09:57:30;;;;;;;23.35;13.02;;;2.80;99.90;;;;;;6278908;22;20544;-58
2021/01/01 09:59:56;;;;;;;22.85;12.82;;;2.90;99.90;;;;;;6279469;22;20150;-58
2021/01/01 10:02:22;;;;;;;24.25;13.10;;;2.90;99.90;;;;;;6279331;22;20226;-57
2021/01/01 10:04:48;;;;;;;23.60;13.30;;;2.90;99.90;;;;;;6279489;22;20205;-57
2021/01/01 10:07:15;;;;;;;25.20;13.45;;;2.90;99.90;;;;;;6279321;22;20179;-58
2021/01/01 10:09:41;;;;;;;23.35;13.68;;;2.90;99.90;;;;;;6279429;22;20220;-57
2021/01/01 10:12:07;;;;;;;24.88;13.68;;;2.90;99.90;;;;;;6279276;22;20540;-57
2021/01/01 10:14:32;;;;;;;26.38;13.75;;;2.90;99.90;;;;;;6278828;22;20174;-57
2021/01/01 10:16:58;;;;;;;23.98;14.48;;;3.00;99.90;;;;;;6279371;22;20235;-57
2021/01/01 10:19:24;;;;;;;28.50;14.68;;;3.00;99.90;;;;;;6278902;22;20218;-57
2021/01/01 10:21:49;;;;;;;27.63;14.57;;;3.00;99.90;;;;;;6278991;22;20150;-57
2021/01/01 10:24:15;;;;;;;27.48;14.95;;;3.00;99.90;;;;;;6278651;22;20144;-57
2021/01/01 10:26:40;;;;;;;27.58;14.05;;;3.10;99.90;;;;;;6279368;22;20162;-57
2021/01/01 10:29:06;;;;;;;25.63;14.27;;;3.10;99.90;;;;;;6252050;22;20478;-57
2021/01/01 10:31:31;;;;;;;29.67;15.75;;;3.10;99.90;;;;;;6278977;22;20166;-57
2021/01/01 10:33:56;;;;;;;26.45;15.00;;;3.10;99.90;;;;;;6278933;22;20163;-57
2021/01/01 10:36:22;;;;;;;29.02;14.40;;;3.20;99.90;;;;;;6279880;22;20140;-57
2021/01/01 10:38:47;;;;;;;32.30;15.40;;;3.10;99.90;;;;;;6279055;22;20635;-57
2021/01/01 10:41:14;;;;;;;32.55;16.13;;;3.10;99.90;;;;;;6278857;22;20439;-57
2021/01/01 10:43:40;;;;;;;30.08;14.27;;;3.10;99.90;;;;;;6278767;22;20143;-57
2021/01/01 10:46:05;;;;;;;29.75;15.75;;;3.10;99.90;;;;;;6278778;22;20560;-58
2021/01/01 10:48:31;;;;;;;28.13;14.82;;;3.10;99.90;;;;;;6278833;22;20154;-57
2021/01/01 10:50:56;;;;;;;27.77;14.73;;;3.10;99.90;;;;;;6279212;22;20147;-57
2021/01/01 10:53:22;;;;;;;32.85;15.82;;;3.10;99.90;;;;;;6251728;22;20155;-57
2021/01/01 10:55:50;;;;;;;31.20;14.85;;;3.20;99.90;;;;;;6279024;22;20416;-57
2021/01/01 10:58:23;;;;;;;29.60;15.13;;;3.20;99.90;;;;;;6278974;22;20143;-57
2021/01/01 11:00:51;;;;;;;28.08;15.05;;;3.20;99.90;;;;;;6253612;22;20541;-57
2021/01/01 11:03:16;;;;;;;25.60;15.00;;;3.20;99.90;;;;;;6278830;22;20486;-57
2021/01/01 11:05:42;;;;;;;29.50;15.27;;;3.30;99.90;;;;;;6278538;22;20171;-57
2021/01/01 11:08:07;;;;;;;33.22;15.50;;;3.20;99.90;;;;;;6278475;22;20154;-57
2021/01/01 11:10:33;;;;;;;29.48;15.25;;;3.30;99.90;;;;;;6251842;22;20159;-57
2021/01/01 11:13:00;;;;;;;30.73;15.73;;;3.30;99.90;;;;;;6278531;22;20552;-57
2021/01/01 12:21:59;;;;;;;24.10;13.13;;;3.50;99.90;;;;;;6236771;22;20186;-58
2021/01/01 12:24:39;;;;;;;29.55;14.00;;;3.40;99.90;;;;;;6258638;22;20151;-57
2021/01/01 12:27:05;;;;;;;28.92;13.65;;;3.40;99.90;;;;;;6280337;22;20136;-58
2021/01/01 12:29:30;;;;;;;25.83;12.60;;;3.50;99.90;;;;;;6280074;22;20587;-58
2021/01/01 12:31:56;;;;;;;26.42;13.90;;;3.50;99.90;;;;;;6253720;22;20182;-57
2021/01/01 12:34:22;;;;;;;23.63;13.27;;;3.50;99.90;;;;;;6252910;22;20247;-58
2021/01/01 12:36:47;;;;;;;25.63;13.05;;;3.60;99.90;;;;;;6280035;22;20171;-58
2021/01/01 12:39:13;;;;;;;29.95;15.57;;;3.60;99.90;;;;;;6279599;22;20143;-58
2021/01/01 12:41:38;;;;;;;28.55;14.05;;;3.70;99.90;;;;;;6280019;22;20201;-58
2021/01/01 12:44:05;;;;;;;32.47;16.25;;;3.70;99.90;;;;;;6279881;22;20152;-58
2021/01/01 12:46:30;;;;;;;27.85;15.18;;;3.70;99.90;;;;;;6279280;22;20163;-58
2021/01/01 12:48:56;;;;;;;35.15;18.60;;;3.70;99.90;;;;;;6279897;22;20140;-58
2021/01/01 12:51:21;;;;;;;27.92;14.00;;;3.70;99.90;;;;;;6279635;22;20144;-58
2021/01/01 12:53:47;;;;;;;26.45;13.50;;;3.70;99.90;;;;;;6279288;22;20163;-58
2021/01/01 12:56:13;;;;;;;28.20;15.32;;;3.70;99.90;;;;;;6279709;22;20143;-58
2021/01/01 12:58:39;;;;;;;27.50;14.55;;;3.80;99.90;;;;;;6279796;22;20430;-57
2021/01/01 13:01:04;;;;;;;22.48;13.23;;;3.70;99.90;;;;;;6279302;22;20151;-58
2021/01/01 13:03:30;;;;;;;24.42;13.52;;;3.80;99.90;;;;;;6279872;22;20545;-57
2021/01/01 13:05:55;;;;;;;25.98;13.50;;;3.80;99.90;;;;;;6279381;22;20459;-57
2021/01/01 13:08:21;;;;;;;25.70;13.60;;;3.80;99.90;;;;;;6279141;22;20494;-57
2021/01/01 13:10:46;;;;;;;25.58;13.23;;;3.70;99.90;;;;;;6279407;22;20230;-57
2021/01/01 13:13:12;;;;;;;25.33;12.98;;;3.70;99.90;;;;;;6279043;22;20214;-57
2021/01/01 13:15:37;;;;;;;26.48;13.93;;;3.70;99.90;;;;;;6278855;22;20159;-57
2021/01/01 13:18:05;;;;;;;28.88;14.70;;;3.70;99.90;;;;;;6279321;22;20146;-57
2021/01/01 13:20:30;;;;;;;27.83;13.35;;;3.70;99.90;;;;;;6279170;22;20150;-57
2021/01/01 13:22:56;;;;;;;25.20;13.75;;;3.70;99.90;;;;;;6279556;22;20136;-57
2021/01/01 13:25:21;;;;;;;32.63;14.35;;;3.70;99.90;;;;;;6279456;22;20142;-58
2021/01/01 13:27:47;;;;;;;27.77;13.80;;;3.70;99.90;;;;;;6279460;22;20140;-58
2021/01/01 13:30:17;;;;;;;27.83;14.13;;;3.70;99.90;;;;;;6279347;22;20154;-58
2021/01/01 13:32:43;;;;;;;27.60;13.95;;;3.70;99.90;;;;;;6279520;22;20148;-58
2021/01/01 13:35:09;;;;;;;28.55;13.75;;;3.70;99.90;;;;;;6278919;22;20168;-58
2021/01/01 13:37:35;;;;;;;26.38;13.30;;;3.70;99.90;;;;;;6279031;22;20140;-58
2021/01/01 13:40:04;;;;;;;24.05;13.57;;;3.70;99.90;;;;;;6278981;22;20176;-58
2021/01/01 13:42:30;;;;;;;27.60;14.82;;;3.70;99.90;;;;;;6279086;22;20140;-58
2021/01/01 13:44:55;;;;;;;26.15;14.38;;;3.70;99.90;;;;;;6279208;22;20594;-57
2021/01/01 13:47:22;;;;;;;26.92;13.82;;;3.70;99.90;;;;;;6279206;22;20152;-59
2021/01/01 13:49:48;;;;;;;28.13;14.57;;;3.70;99.90;;;;;;6278890;22;20192;-58
2021/01/01 13:52:15;;;;;;;27.63;14.27;;;3.60;99.90;;;;;;6278904;22;20234;-58
2021/01/01 13:54:40;;;;;;;29.05;14.95;;;3.60;99.90;;;;;;6279109;22;20163;-58
2021/01/01 13:57:05;;;;;;;27.55;14.18;;;3.60;99.90;;;;;;6279209;22;20144;-57
2021/01/01 13:59:31;;;;;;;28.02;14.45;;;3.60;99.90;;;;;;6278755;22;20590;-58
2021/01/01 14:01:56;;;;;;;31.15;14.63;;;3.60;99.90;;;;;;6279104;22;20136;-58
2021/01/01 14:04:22;;;;;;;25.50;13.82;;;3.60;99.90;;;;;;6279140;22;20159;-58
2021/01/01 14:06:47;;;;;;;28.40;15.45;;;3.60;99.90;;;;;;6278755;22;20451;-57
2021/01/01 14:09:13;;;;;;;26.15;13.80;;;3.60;99.90;;;;;;6279139;22;20147;-58
2021/01/01 14:11:38;;;;;;;26.55;14.52;;;3.60;99.90;;;;;;6279042;22;20209;-56
2021/01/01 14:14:04;;;;;;;28.55;14.32;;;3.60;99.90;;;;;;6252210;22;20532;-59
2021/01/01 14:16:29;;;;;;;29.63;14.23;;;3.60;99.90;;;;;;6278720;22;20140;-57
2021/01/01 14:18:55;;;;;;;26.50;14.05;;;3.60;99.90;;;;;;6279647;22;20146;-58
2021/01/01 14:21:28;;;;;;;27.83;14.18;;;3.60;99.90;;;;;;6278900;22;20139;-58
2021/01/01 14:23:53;;;;;;;27.35;14.27;;;3.50;99.90;;;;;;6278669;22;20582;-58
2021/01/01 14:26:19;;;;;;;25.90;13.75;;;3.50;99.90;;;;;;6278530;22;20143;-57
2021/01/01 14:28:44;;;;;;;25.75;14.40;;;3.50;99.90;;;;;;6278910;22;20147;-57
2021/01/01 14:31:10;;;;;;;22.58;13.02;;;3.50;99.90;;;;;;6278476;22;20144;-57
2021/01/01 14:33:35;;;;;;;24.58;13.15;;;3.50;99.90;;;;;;6278743;22;20438;-58
2021/01/01 14:36:01;;;;;;;25.33;13.50;;;3.50;99.90;;;;;;6278600;22;20159;-57
2021/01/01 14:38:26;;;;;;;25.45;14.35;;;3.50;99.90;;;;;;6278856;22;20193;-58
2021/01/01 14:40:52;;;;;;;24.80;13.43;;;3.50;99.90;;;;;;6278434;22;20143;-58
2021/01/01 14:43:17;;;;;;;27.23;13.57;;;3.50;99.90;;;;;;6278752;22;20568;-58
2021/01/01 14:45:43;;;;;;;23.35;13.60;;;3.50;99.90;;;;;;6278368;22;20148;-58
2021/01/01 14:48:08;;;;;;;27.50;12.85;;;3.50;99.90;;;;;;6278968;22;20158;-58
2021/01/01 14:50:35;;;;;;;26.17;13.45;;;3.50;99.90;;;;;;6278288;22;20484;-58
2021/01/01 14:53:01;;;;;;;22.83;12.52;;;3.50;99.90;;;;;;6278711;22;20186;-58
2021/01/01 14:55:26;;;;;;;25.17;13.80;;;3.50;99.90;;;;;;6251823;22;20191;-59
2021/01/01 14:57:52;;;;;;;21.92;11.80;;;3.50;99.90;;;;;;6278366;22;20143;-58
2021/01/01 15:00:18;;;;;;;26.73;13.52;;;3.40;99.90;;;;;;6278602;22;20417;-58
2021/01/01 15:10:47;;;;;;;24.63;12.90;;;3.40;99.90;;;;;;6210160;22;395231;31
2021/01/01 15:18:57;;;;;;;24.35;12.13;;;3.30;99.90;;;;;;6169243;22;20536;31
2021/01/01 15:23:48;;;;;;;22.77;12.48;;;3.20;99.90;;;;;;6119675;23;392562;31
2021/01/01 15:49:42;;;;;;;29.27;13.40;;;3.00;99.90;;;;;;6179574;22;20187;31
2021/01/01 16:01:57;;;;;;;24.67;12.55;;;3.00;99.90;;;;;;6183100;22;20210;31
2021/01/01 16:23:47;;;;;;;28.92;13.50;;;3.00;99.90;;;;;;6162549;22;386525;31
2021/01/01 16:35:04;;;;;;;23.80;12.88;;;3.00;99.90;;;;;;6135567;23;20191;-61
2021/01/01 16:50:28;;;;;;;24.40;13.13;;;3.00;99.90;;;;;;5635515;23;386369;31
2021/01/01 17:09:51;;;;;;;22.92;11.95;;;2.90;99.90;;;;;;5638398;23;389181;31
2021/01/01 17:19:33;;;;;;;25.73;12.50;;;2.90;99.90;;;;;;5649997;23;22595;31
2021/01/01 17:57:12;;;;;;;23.98;11.88;;;2.90;99.90;;;;;;6260737;22;20553;31
2021/01/01 18:02:03;;;;;;;26.00;12.57;;;2.90;99.90;;;;;;6241043;22;391372;31
2021/01/01 18:17:40;;;;;;;24.55;13.02;;;2.90;99.90;;;;;;6254406;22;20512;31
2021/01/01 18:40:29;;;;;;;23.20;11.73;;;3.00;99.90;;;;;;6257489;22;21736;31
2021/01/01 19:19:21;;;;;;;20.40;11.45;;;3.10;99.90;;;;;;6256925;22;20221;31
2021/01/01 19:54:18;;;;;;;19.58;11.13;;;3.20;99.90;;;;;;6202840;22;20209;-58
2021/01/01 20:33:40;;;;;;;20.90;9.82;;;3.30;99.90;;;;;;6205332;22;20202;31
2021/01/01 21:39:21;;;;;;;18.10;11.02;;;3.40;99.90;;;;;;6234757;22;20705;31
2021/01/01 21:53:56;;;;;;;18.38;11.65;;;3.40;99.90;;;;;;6205221;22;20195;31
2021/01/01 22:03:38;;;;;;;16.98;10.55;;;3.40;99.90;;;;;;6186398;22;387761;31
2021/01/01 22:32:51;;;;;;;21.88;11.95;;;3.40;99.90;;;;;;6203153;22;20284;31
2021/01/01 22:37:42;;;;;;;21.33;12.68;;;3.40;99.90;;;;;;6186136;22;390773;31
2021/01/01 22:42:33;;;;;;;25.30;12.95;;;3.50;99.90;;;;;;6189657;22;392361;31
2021/01/01 22:52:32;;;;;;;21.75;12.27;;;3.50;99.90;;;;;;6196560;22;20199;31
